KJFK/JFK METAR and TAF weather

Enter ICAO airport designator
Station Type Date Time Source
KJFK METAR 2021/02/24 16:51 UTC NOAA

KJFK 241651Z 22011KT 10SM FEW170 BKN220 BKN250 08/00 A3006 RMK AO2 SLP180 T00780000


Station Type Date Time Source
KJFK Decoded METAR 2021/02/24 16:51 UTC NOAA

KENNEDY INTERNATIONAL AIRPORT , NY, United States (KJFK) 40-38N 073-46W 9M
Feb 24, 2021 - 11:51 AM EST / 2021.02.24 1651 UTC
Wind: from the SW (220 degrees) at 13 MPH (11 KT):0
Visibility: 10 mile(s):0
Sky conditions: mostly cloudy
Temperature: 46.0 F (7.8 C)
Dew Point: 32.0 F (0.0 C)
Relative Humidity: 57%
Pressure (altimeter): 30.06 in. Hg (1017 hPa)
ob: KJFK 241651Z 22011KT 10SM FEW170 BKN220 BKN250 08/00 A3006 RMK AO2 SLP180 T00780000
cycle: 17

Station Type Date Time Source
KJFK TAF 2021/02/24 18:31 UTC NOAA

TAF KJFK 241727Z 2418/2524 22011KT P6SM SCT250
FM242000 18015G24KT P6SM FEW040 BKN250
FM250300 23013KT P6SM SCT040 BKN080 WS020/24045KT
FM250700 29016G24KT P6SM FEW040 BKN150
FM251200 32016G24KT P6SM FEW250
FM252300 31009G15KT P6SM FEW250

Example: see airport list